sensor_id;sensor_type;location;lat;lon;timestamp;pressure;altitude;pressure_sealevel;temperature;humidity
69574;BME280;62840;52.366;5.980;2023-05-20T00:02:14;102465.13;;;13.18;53.73
69574;BME280;62840;52.366;5.980;2023-05-20T00:04:44;102456.31;;;13.15;53.91
69574;BME280;62840;52.366;5.980;2023-05-20T00:07:12;102465.53;;;13.11;53.95
69574;BME280;62840;52.366;5.980;2023-05-20T00:09:39;102469.19;;;13.10;54.21
69574;BME280;62840;52.366;5.980;2023-05-20T00:12:11;102471.84;;;13.10;54.35
69574;BME280;62840;52.366;5.980;2023-05-20T00:14:39;102473.78;;;13.08;54.53
69574;BME280;62840;52.366;5.980;2023-05-20T00:17:12;102466.72;;;13.07;54.33
69574;BME280;62840;52.366;5.980;2023-05-20T00:19:40;102474.75;;;13.07;54.50
69574;BME280;62840;52.366;5.980;2023-05-20T00:22:07;102471.31;;;13.05;54.46
69574;BME280;62840;52.366;5.980;2023-05-20T00:24:34;102464.22;;;13.04;54.54
69574;BME280;62840;52.366;5.980;2023-05-20T00:27:00;102468.72;;;13.04;54.57
69574;BME280;62840;52.366;5.980;2023-05-20T00:29:28;102464.22;;;13.04;54.55
69574;BME280;62840;52.366;5.980;2023-05-20T00:32:02;102471.50;;;13.02;54.98
69574;BME280;62840;52.366;5.980;2023-05-20T00:34:28;102473.44;;;13.00;54.81
69574;BME280;62840;52.366;5.980;2023-05-20T00:36:59;102470.75;;;13.00;55.06
69574;BME280;62840;52.366;5.980;2023-05-20T00:39:34;102466.16;;;13.02;54.95
69574;BME280;62840;52.366;5.980;2023-05-20T00:42:05;102460.78;;;13.02;54.96
69574;BME280;62840;52.366;5.980;2023-05-20T00:44:47;102464.22;;;13.04;54.73
69574;BME280;62840;52.366;5.980;2023-05-20T00:47:22;102459.84;;;13.03;54.90
69574;BME280;62840;52.366;5.980;2023-05-20T00:49:53;102457.16;;;13.03;55.08
69574;BME280;62840;52.366;5.980;2023-05-20T00:52:22;102459.09;;;13.01;55.07
69574;BME280;62840;52.366;5.980;2023-05-20T00:55:07;102455.66;;;12.99;55.50
69574;BME280;62840;52.366;5.980;2023-05-20T00:57:41;102456.72;;;12.97;55.41
69574;BME280;62840;52.366;5.980;2023-05-20T01:00:26;102448.78;;;12.95;55.78
69574;BME280;62840;52.366;5.980;2023-05-20T01:02:57;102447.06;;;12.94;55.58
69574;BME280;62840;52.366;5.980;2023-05-20T01:05:23;102444.41;;;12.94;55.54
69574;BME280;62840;52.366;5.980;2023-05-20T01:07:49;102444.50;;;12.92;55.56
69574;BME280;62840;52.366;5.980;2023-05-20T01:10:15;102444.59;;;12.91;55.54
69574;BME280;62840;52.366;5.980;2023-05-20T01:12:43;102446.41;;;12.90;55.52
69574;BME280;62840;52.366;5.980;2023-05-20T01:15:15;102442.03;;;12.89;55.77
69574;BME280;62840;52.366;5.980;2023-05-20T01:17:45;102442.13;;;12.88;55.96
69574;BME280;62840;52.366;5.980;2023-05-20T01:20:15;102437.84;;;12.85;55.84
69574;BME280;62840;52.366;5.980;2023-05-20T01:22:52;102430.66;;;12.86;56.19
69574;BME280;62840;52.366;5.980;2023-05-20T01:25:20;102435.25;;;12.84;55.82
69574;BME280;62840;52.366;5.980;2023-05-20T01:27:46;102430.00;;;12.82;56.17
69574;BME280;62840;52.366;5.980;2023-05-20T01:30:13;102432.03;;;12.79;56.16
69574;BME280;62840;52.366;5.980;2023-05-20T01:32:43;102428.50;;;12.78;56.22
69574;BME280;62840;52.366;5.980;2023-05-20T01:35:13;102425.16;;;12.74;56.19
69574;BME280;62840;52.366;5.980;2023-05-20T01:37:40;102424.41;;;12.72;56.32
69574;BME280;62840;52.366;5.980;2023-05-20T01:40:14;102421.72;;;12.72;56.36
69574;BME280;62840;52.366;5.980;2023-05-20T01:42:40;102414.66;;;12.71;56.18
69574;BME280;62840;52.366;5.980;2023-05-20T01:45:08;102417.44;;;12.70;56.36
69574;BME280;62840;52.366;5.980;2023-05-20T01:47:35;102412.16;;;12.68;56.38
69574;BME280;62840;52.366;5.980;2023-05-20T01:50:00;102409.50;;;12.68;56.45
69574;BME280;62840;52.366;5.980;2023-05-20T01:52:26;102412.06;;;12.70;56.63
69574;BME280;62840;52.366;5.980;2023-05-20T01:54:52;102410.47;;;12.67;56.38
69574;BME280;62840;52.366;5.980;2023-05-20T01:57:21;102411.41;;;12.66;56.67
69574;BME280;62840;52.366;5.980;2023-05-20T01:59:48;102404.34;;;12.65;56.75
69574;BME280;62840;52.366;5.980;2023-05-20T02:02:14;102407.78;;;12.67;56.54
69574;BME280;62840;52.366;5.980;2023-05-20T02:04:41;102409.94;;;12.62;56.78
69574;BME280;62840;52.366;5.980;2023-05-20T02:07:09;102409.94;;;12.62;56.73
69574;BME280;62840;52.366;5.980;2023-05-20T02:09:36;102405.50;;;12.61;56.62
69574;BME280;62840;52.366;5.980;2023-05-20T02:12:02;102404.75;;;12.59;56.72
69574;BME280;62840;52.366;5.980;2023-05-20T02:14:31;102406.66;;;12.57;56.94
69574;BME280;62840;52.366;5.980;2023-05-20T02:16:56;102397.88;;;12.55;57.17
69574;BME280;62840;52.366;5.980;2023-05-20T02:19:22;102408.59;;;12.55;57.06
69574;BME280;62840;52.366;5.980;2023-05-20T02:21:48;102406.88;;;12.54;56.94
69574;BME280;62840;52.366;5.980;2023-05-20T02:24:15;102404.22;;;12.54;57.10
69574;BME280;62840;52.366;5.980;2023-05-20T02:26:41;102405.16;;;12.53;57.41
69574;BME280;62840;52.366;5.980;2023-05-20T02:29:07;102415.84;;;12.53;57.08
69574;BME280;62840;52.366;5.980;2023-05-20T02:31:35;102409.78;;;12.51;57.10
69574;BME280;62840;52.366;5.980;2023-05-20T02:34:01;102408.81;;;12.52;57.26
69574;BME280;62840;52.366;5.980;2023-05-20T02:36:26;102408.81;;;12.52;57.20
69574;BME280;62840;52.366;5.980;2023-05-20T02:38:52;102403.44;;;12.52;57.32
69574;BME280;62840;52.366;5.980;2023-05-20T02:41:18;102401.75;;;12.51;57.41
69574;BME280;62840;52.366;5.980;2023-05-20T02:43:44;102401.75;;;12.51;57.39
69574;BME280;62840;52.366;5.980;2023-05-20T02:46:09;102401.75;;;12.51;57.24
69574;BME280;62840;52.366;5.980;2023-05-20T02:48:38;102391.03;;;12.51;57.51
69574;BME280;62840;52.366;5.980;2023-05-20T02:51:04;102389.09;;;12.53;57.28
69574;BME280;62840;52.366;5.980;2023-05-20T02:53:30;102387.41;;;12.52;57.48
69574;BME280;62840;52.366;5.980;2023-05-20T02:55:56;102387.41;;;12.52;57.64
69574;BME280;62840;52.366;5.980;2023-05-20T02:58:22;102387.19;;;12.55;57.48
69574;BME280;62840;52.366;5.980;2023-05-20T03:00:48;102392.53;;;12.55;57.60
69574;BME280;62840;52.366;5.980;2023-05-20T03:03:13;102381.81;;;12.55;57.43
69574;BME280;62840;52.366;5.980;2023-05-20T03:05:42;102380.13;;;12.54;57.43
69574;BME280;62840;52.366;5.980;2023-05-20T03:08:08;102381.81;;;12.55;57.70
69574;BME280;62840;52.366;5.980;2023-05-20T03:10:34;102385.47;;;12.54;57.61
69574;BME280;62840;52.366;5.980;2023-05-20T03:13:00;102381.06;;;12.53;57.72
69574;BME280;62840;52.366;5.980;2023-05-20T03:15:26;102385.47;;;12.54;57.89
69574;BME280;62840;52.366;5.980;2023-05-20T03:17:52;102384.50;;;12.55;57.85
69574;BME280;62840;52.366;5.980;2023-05-20T03:20:18;102392.53;;;12.55;58.12
69574;BME280;62840;52.366;5.980;2023-05-20T03:22:46;102390.81;;;12.54;57.75
69574;BME280;62840;52.366;5.980;2023-05-20T03:25:12;102389.84;;;12.55;57.89
69574;BME280;62840;52.366;5.980;2023-05-20T03:27:38;102387.19;;;12.55;57.92
69574;BME280;62840;52.366;5.980;2023-05-20T03:30:05;102383.56;;;12.56;57.90
69574;BME280;62840;52.366;5.980;2023-05-20T03:32:32;102390.63;;;12.57;58.08
69574;BME280;62840;52.366;5.980;2023-05-20T03:34:58;102395.13;;;12.57;57.99
69574;BME280;62840;52.366;5.980;2023-05-20T03:37:23;102399.50;;;12.58;57.97
69574;BME280;62840;52.366;5.980;2023-05-20T03:39:52;102397.69;;;12.58;57.93
69574;BME280;62840;52.366;5.980;2023-05-20T03:42:17;102384.31;;;12.58;57.98
69574;BME280;62840;52.366;5.980;2023-05-20T03:44:43;102398.56;;;12.59;58.02
69574;BME280;62840;52.366;5.980;2023-05-20T03:47:09;102395.88;;;12.59;58.16
69574;BME280;62840;52.366;5.980;2023-05-20T03:49:35;102394.06;;;12.59;58.22
69574;BME280;62840;52.366;5.980;2023-05-20T03:52:00;102400.25;;;12.60;58.12
69574;BME280;62840;52.366;5.980;2023-05-20T03:54:26;102401.13;;;12.60;58.03
69574;BME280;62840;52.366;5.980;2023-05-20T03:56:54;102404.56;;;12.62;58.16
69574;BME280;62840;52.366;5.980;2023-05-20T03:59:20;102399.22;;;12.62;58.21
69574;BME280;62840;52.366;5.980;2023-05-20T04:01:46;102401.91;;;12.62;58.09
69574;BME280;62840;52.366;5.980;2023-05-20T04:04:11;102403.59;;;12.63;58.22
69574;BME280;62840;52.366;5.980;2023-05-20T04:06:37;102405.31;;;12.64;58.37
69574;BME280;62840;52.366;5.980;2023-05-20T04:09:03;102400.72;;;12.66;58.26
69574;BME280;62840;52.366;5.980;2023-05-20T04:11:29;102397.09;;;12.67;58.14
69574;BME280;62840;52.366;5.980;2023-05-20T04:13:57;102398.78;;;12.68;58.14
69574;BME280;62840;52.366;5.980;2023-05-20T04:16:23;102398.78;;;12.68;58.21
69574;BME280;62840;52.366;5.980;2023-05-20T04:18:48;102398.78;;;12.68;58.29
69574;BME280;62840;52.366;5.980;2023-05-20T04:21:14;102404.13;;;12.68;58.44
69574;BME280;62840;52.366;5.980;2023-05-20T04:23:40;102401.69;;;12.65;58.43
69574;BME280;62840;52.366;5.980;2023-05-20T04:26:06;102402.63;;;12.64;58.52
69574;BME280;62840;52.366;5.980;2023-05-20T04:28:32;102407.97;;;12.64;58.32
69574;BME280;62840;52.366;5.980;2023-05-20T04:31:01;102407.97;;;12.64;58.51
69574;BME280;62840;52.366;5.980;2023-05-20T04:33:27;102406.28;;;12.63;58.55
69574;BME280;62840;52.366;5.980;2023-05-20T04:35:53;102408.09;;;12.63;58.53
69574;BME280;62840;52.366;5.980;2023-05-20T04:38:18;102409.94;;;12.62;58.63
69574;BME280;62840;52.366;5.980;2023-05-20T04:40:44;102406.50;;;12.60;58.66
69574;BME280;62840;52.366;5.980;2023-05-20T04:43:10;102410.09;;;12.59;58.85
69574;BME280;62840;52.366;5.980;2023-05-20T04:45:35;102408.41;;;12.58;58.72
69574;BME280;62840;52.366;5.980;2023-05-20T04:48:04;102399.41;;;12.59;58.66
69574;BME280;62840;52.366;5.980;2023-05-20T04:50:30;102409.25;;;12.59;58.60
69574;BME280;62840;52.366;5.980;2023-05-20T04:52:55;102402.09;;;12.59;58.79
69574;BME280;62840;52.366;5.980;2023-05-20T04:55:21;102397.69;;;12.58;58.94
69574;BME280;62840;52.366;5.980;2023-05-20T04:57:47;102405.72;;;12.58;59.07
69574;BME280;62840;52.366;5.980;2023-05-20T05:00:13;102412.03;;;12.57;59.02
69574;BME280;62840;52.366;5.980;2023-05-20T05:02:39;102407.44;;;12.59;59.07
69574;BME280;62840;52.366;5.980;2023-05-20T05:05:08;102406.28;;;12.63;59.03
69574;BME280;62840;52.366;5.980;2023-05-20T05:07:34;102415.06;;;12.65;59.00
69574;BME280;62840;52.366;5.980;2023-05-20T05:10:00;102407.78;;;12.67;58.87
69574;BME280;62840;52.366;5.980;2023-05-20T05:12:25;102407.56;;;12.70;58.91
69574;BME280;62840;52.366;5.980;2023-05-20T05:14:51;102412.75;;;12.73;58.98
69574;BME280;62840;52.366;5.980;2023-05-20T05:17:17;102407.41;;;12.73;58.88
69574;BME280;62840;52.366;5.980;2023-05-20T05:19:43;102407.41;;;12.73;58.74
69574;BME280;62840;52.366;5.980;2023-05-20T05:22:11;102412.53;;;12.77;58.89
69574;BME280;62840;52.366;5.980;2023-05-20T05:24:37;102412.31;;;12.80;59.19
69574;BME280;62840;52.366;5.980;2023-05-20T05:27:03;102412.13;;;12.83;58.92
69574;BME280;62840;52.366;5.980;2023-05-20T05:29:29;102401.19;;;12.86;58.86
69574;BME280;62840;52.366;5.980;2023-05-20T05:31:55;102400.97;;;12.89;58.76
69574;BME280;62840;52.366;5.980;2023-05-20T05:34:21;102405.25;;;12.91;58.86
69574;BME280;62840;52.366;5.980;2023-05-20T05:36:47;102400.56;;;12.95;58.43
69574;BME280;62840;52.366;5.980;2023-05-20T05:39:15;102397.59;;;13.00;58.53
69574;BME280;62840;52.366;5.980;2023-05-20T05:41:41;102399.09;;;13.04;58.64
69574;BME280;62840;52.366;5.980;2023-05-20T05:44:06;102398.03;;;13.06;58.67
69574;BME280;62840;52.366;5.980;2023-05-20T05:46:32;102399.53;;;13.10;58.62
69574;BME280;62840;52.366;5.980;2023-05-20T05:48:58;102400.28;;;13.12;58.54
69574;BME280;62840;52.366;5.980;2023-05-20T05:51:23;102397.38;;;13.15;58.54
69574;BME280;62840;52.366;5.980;2023-05-20T05:53:49;102397.06;;;13.20;58.34
69574;BME280;62840;52.366;5.980;2023-05-20T05:56:18;102398.69;;;13.23;58.31
69574;BME280;62840;52.366;5.980;2023-05-20T05:58:43;102395.81;;;13.26;58.27
69574;BME280;62840;52.366;5.980;2023-05-20T06:01:09;102399.09;;;13.29;58.30
69574;BME280;62840;52.366;5.980;2023-05-20T06:03:35;102399.75;;;13.33;58.54
69574;BME280;62840;52.366;5.980;2023-05-20T06:06:01;102399.53;;;13.36;58.28
69574;BME280;62840;52.366;5.980;2023-05-20T06:08:26;102406.41;;;13.40;58.17
69574;BME280;62840;52.366;5.980;2023-05-20T06:10:52;102409.63;;;13.45;57.95
69574;BME280;62840;52.366;5.980;2023-05-20T06:13:20;102407.50;;;13.50;57.89
69574;BME280;62840;52.366;5.980;2023-05-20T06:15:48;102406.31;;;13.54;58.04
69574;BME280;62840;52.366;5.980;2023-05-20T06:18:14;102409.56;;;13.60;57.97
69574;BME280;62840;52.366;5.980;2023-05-20T06:20:40;102405.47;;;13.67;57.66
69574;BME280;62840;52.366;5.980;2023-05-20T06:23:05;102397.94;;;13.72;57.92
69574;BME280;62840;52.366;5.980;2023-05-20T06:25:31;102400.31;;;13.76;57.82
69574;BME280;62840;52.366;5.980;2023-05-20T06:27:57;102392.91;;;13.80;57.23
69574;BME280;62840;52.366;5.980;2023-05-20T06:30:25;102394.41;;;13.84;57.59
69574;BME280;62840;52.366;5.980;2023-05-20T06:32:51;102392.25;;;13.89;57.81
69574;BME280;62840;52.366;5.980;2023-05-20T06:35:17;102393.75;;;13.93;57.49
69574;BME280;62840;52.366;5.980;2023-05-20T06:37:42;102386.22;;;13.98;57.51
69574;BME280;62840;52.366;5.980;2023-05-20T06:40:09;102385.03;;;14.03;57.16
69574;BME280;62840;52.366;5.980;2023-05-20T06:42:36;102381.91;;;14.09;57.02
69574;BME280;62840;52.366;5.980;2023-05-20T06:45:02;102381.66;;;14.12;57.15
69574;BME280;62840;52.366;5.980;2023-05-20T06:47:31;102394.66;;;14.18;57.07
69574;BME280;62840;52.366;5.980;2023-05-20T06:49:57;102381.00;;;14.21;56.65
69574;BME280;62840;52.366;5.980;2023-05-20T06:52:23;102386.75;;;14.28;56.76
69574;BME280;62840;52.366;5.980;2023-05-20T06:54:48;102377.41;;;14.33;56.64
69574;BME280;62840;52.366;5.980;2023-05-20T06:57:14;102385.00;;;14.39;56.69
69574;BME280;62840;52.366;5.980;2023-05-20T06:59:40;102382.84;;;14.45;56.76
69574;BME280;62840;52.366;5.980;2023-05-20T07:02:06;102378.94;;;14.49;56.19
69574;BME280;62840;52.366;5.980;2023-05-20T07:04:34;102377.53;;;14.56;56.12
69574;BME280;62840;52.366;5.980;2023-05-20T07:07:00;102378.78;;;14.63;56.26
69574;BME280;62840;52.366;5.980;2023-05-20T07:09:26;102373.91;;;14.68;56.31
69574;BME280;62840;52.366;5.980;2023-05-20T07:11:52;102372.75;;;14.72;55.98
69574;BME280;62840;52.366;5.980;2023-05-20T07:14:17;102364.44;;;14.75;55.82
69574;BME280;62840;52.366;5.980;2023-05-20T07:16:43;102361.28;;;14.81;55.83
69574;BME280;62840;52.366;5.980;2023-05-20T07:19:09;102378.75;;;14.87;55.88
69574;BME280;62840;52.366;5.980;2023-05-20T07:21:37;102370.34;;;14.92;55.62
69574;BME280;62840;52.366;5.980;2023-05-20T07:24:04;102368.19;;;14.97;55.25
69574;BME280;62840;52.366;5.980;2023-05-20T07:26:30;102363.41;;;15.00;55.30
69574;BME280;62840;52.366;5.980;2023-05-20T07:28:55;102362.09;;;15.06;55.42
69574;BME280;62840;52.366;5.980;2023-05-20T07:31:21;102369.91;;;15.09;54.92
69574;BME280;62840;52.366;5.980;2023-05-20T07:33:47;102359.63;;;15.14;54.96
69574;BME280;62840;52.366;5.980;2023-05-20T07:36:12;102347.47;;;15.21;55.08
69574;BME280;62840;52.366;5.980;2023-05-20T07:38:41;102356.75;;;15.29;54.94
69574;BME280;62840;52.366;5.980;2023-05-20T07:41:06;102340.16;;;15.35;54.69
69574;BME280;62840;52.366;5.980;2023-05-20T07:43:32;102342.31;;;15.41;54.74
69574;BME280;62840;52.366;5.980;2023-05-20T07:45:58;102346.22;;;15.48;54.23
69574;BME280;62840;52.366;5.980;2023-05-20T07:48:24;102352.84;;;15.55;54.14
69574;BME280;62840;52.366;5.980;2023-05-20T07:50:49;102343.31;;;15.62;54.41
69574;BME280;62840;52.366;5.980;2023-05-20T07:53:15;102352.59;;;15.70;53.75
69574;BME280;62840;52.366;5.980;2023-05-20T07:55:43;102340.63;;;15.74;53.89
69574;BME280;62840;52.366;5.980;2023-05-20T07:58:09;102336.59;;;15.79;53.45
69574;BME280;62840;52.366;5.980;2023-05-20T08:00:35;102334.25;;;15.86;53.43
69574;BME280;62840;52.366;5.980;2023-05-20T08:03:01;102335.72;;;15.90;53.64
69574;BME280;62840;52.366;5.980;2023-05-20T08:05:27;102338.88;;;15.95;53.21
69574;BME280;62840;52.366;5.980;2023-05-20T08:07:52;102333.00;;;16.01;53.22
69574;BME280;62840;52.366;5.980;2023-05-20T08:10:18;102324.56;;;16.06;53.18
69574;BME280;62840;52.366;5.980;2023-05-20T08:12:47;102330.56;;;16.10;53.13
69574;BME280;62840;52.366;5.980;2023-05-20T08:15:13;102322.94;;;16.15;52.86
69574;BME280;62840;52.366;5.980;2023-05-20T08:17:38;102324.41;;;16.19;52.94
69574;BME280;62840;52.366;5.980;2023-05-20T08:20:05;102323.91;;;16.25;52.63
69574;BME280;62840;52.366;5.980;2023-05-20T08:22:32;102318.25;;;16.28;52.84
69574;BME280;62840;52.366;5.980;2023-05-20T08:24:58;102314.31;;;16.32;52.63
69574;BME280;62840;52.366;5.980;2023-05-20T08:27:23;102318.31;;;16.38;52.41
69574;BME280;62840;52.366;5.980;2023-05-20T08:29:52;102322.34;;;16.43;52.09
69574;BME280;62840;52.366;5.980;2023-05-20T08:32:17;102320.97;;;16.49;51.78
69574;BME280;62840;52.366;5.980;2023-05-20T08:34:43;102322.44;;;16.53;51.90
69574;BME280;62840;52.366;5.980;2023-05-20T08:37:09;102316.81;;;16.56;51.50
69574;BME280;62840;52.366;5.980;2023-05-20T08:39:35;102322.03;;;16.58;51.38
69574;BME280;62840;52.366;5.980;2023-05-20T08:42:00;102317.38;;;16.60;51.53
69574;BME280;62840;52.366;5.980;2023-05-20T08:44:26;102316.00;;;16.65;51.23
69574;BME280;62840;52.366;5.980;2023-05-20T08:46:56;102318.03;;;16.73;51.15
69574;BME280;62840;52.366;5.980;2023-05-20T08:49:22;102308.72;;;16.77;51.36
69574;BME280;62840;52.366;5.980;2023-05-20T08:51:48;102310.94;;;16.83;50.57
69574;BME280;62840;52.366;5.980;2023-05-20T08:54:14;102315.03;;;16.87;49.99
69574;BME280;62840;52.366;5.980;2023-05-20T08:56:42;102307.56;;;16.91;50.26
69574;BME280;62840;52.366;5.980;2023-05-20T08:59:08;102309.13;;;16.94;50.06
69574;BME280;62840;52.366;5.980;2023-05-20T09:01:37;102307.16;;;16.96;49.81
69574;BME280;62840;52.366;5.980;2023-05-20T09:04:09;102299.78;;;16.98;49.48
69574;BME280;62840;52.366;5.980;2023-05-20T09:06:41;102301.50;;;16.99;49.38
69574;BME280;62840;52.366;5.980;2023-05-20T09:09:09;102308.31;;;17.03;49.61
69574;BME280;62840;52.366;5.980;2023-05-20T09:11:35;102299.00;;;17.07;49.27
69574;BME280;62840;52.366;5.980;2023-05-20T09:14:01;102299.00;;;17.07;49.24
69574;BME280;62840;52.366;5.980;2023-05-20T09:16:27;102298.72;;;17.10;49.21
69574;BME280;62840;52.366;5.980;2023-05-20T09:18:54;102293.06;;;17.13;49.36
69574;BME280;62840;52.366;5.980;2023-05-20T09:21:26;102297.66;;;17.22;49.12
69574;BME280;62840;52.366;5.980;2023-05-20T09:23:52;102293.41;;;17.29;49.04
69574;BME280;62840;52.366;5.980;2023-05-20T09:26:18;102278.69;;;17.34;48.83
69574;BME280;62840;52.366;5.980;2023-05-20T09:28:45;102276.41;;;17.39;49.00
69574;BME280;62840;52.366;5.980;2023-05-20T09:31:12;102281.56;;;17.42;48.59
69574;BME280;62840;52.366;5.980;2023-05-20T09:33:39;102274.16;;;17.44;48.71
69574;BME280;62840;52.366;5.980;2023-05-20T09:36:07;102275.75;;;17.46;48.71
69574;BME280;62840;52.366;5.980;2023-05-20T09:38:37;102266.25;;;17.52;48.10
69574;BME280;62840;52.366;5.980;2023-05-20T09:41:06;102262.00;;;17.59;47.74
69574;BME280;62840;52.366;5.980;2023-05-20T09:43:35;102263.44;;;17.63;47.77
69574;BME280;62840;52.366;5.980;2023-05-20T09:46:02;102262.03;;;17.69;48.04
69574;BME280;62840;52.366;5.980;2023-05-20T09:48:29;102255.22;;;17.75;47.47
69574;BME280;62840;52.366;5.980;2023-05-20T09:50:56;102263.94;;;17.78;47.26
69574;BME280;62840;52.366;5.980;2023-05-20T09:53:22;102261.06;;;17.80;47.38
69574;BME280;62840;52.366;5.980;2023-05-20T09:55:54;102263.78;;;17.80;47.28
69574;BME280;62840;52.366;5.980;2023-05-20T09:58:21;102269.16;;;17.80;47.00
69574;BME280;62840;52.366;5.980;2023-05-20T10:00:47;102259.25;;;17.80;46.97
69574;BME280;62840;52.366;5.980;2023-05-20T10:03:13;102253.56;;;17.83;46.62
69574;BME280;62840;52.366;5.980;2023-05-20T10:05:42;102252.44;;;17.86;47.15
69574;BME280;62840;52.366;5.980;2023-05-20T10:08:41;102247.31;;;17.92;45.85
69574;BME280;62840;52.366;5.980;2023-05-20T10:11:28;102244.19;;;17.97;46.38
69574;BME280;62840;52.366;5.980;2023-05-20T10:14:13;102235.13;;;17.98;45.75
69574;BME280;62840;52.366;5.980;2023-05-20T10:17:00;102241.91;;;18.02;46.12
69574;BME280;62840;52.366;5.980;2023-05-20T10:19:32;102245.34;;;18.04;46.21
69574;BME280;62840;52.366;5.980;2023-05-20T10:22:00;102236.97;;;18.07;45.62
69574;BME280;62840;52.366;5.980;2023-05-20T10:24:31;102226.59;;;18.12;46.08
69574;BME280;62840;52.366;5.980;2023-05-20T10:27:01;102227.72;;;18.20;45.69
69574;BME280;62840;52.366;5.980;2023-05-20T10:29:29;102227.72;;;18.20;45.49
69574;BME280;62840;52.366;5.980;2023-05-20T10:32:05;102229.69;;;18.18;45.83
69574;BME280;62840;52.366;5.980;2023-05-20T10:34:44;102230.53;;;18.18;45.84
69574;BME280;62840;52.366;5.980;2023-05-20T10:37:21;102205.25;;;18.19;45.76
69574;BME280;62840;52.366;5.980;2023-05-20T10:39:48;102208.50;;;18.23;45.95
69574;BME280;62840;52.366;5.980;2023-05-20T10:42:26;102211.66;;;18.28;45.45
69574;BME280;62840;52.366;5.980;2023-05-20T10:44:53;102207.09;;;18.28;46.10
69574;BME280;62840;52.366;5.980;2023-05-20T10:47:19;102203.13;;;18.32;45.78
69574;BME280;62840;52.366;5.980;2023-05-20T10:49:45;102206.22;;;18.38;45.42
69574;BME280;62840;52.366;5.980;2023-05-20T10:52:12;102207.50;;;18.43;45.38
69574;BME280;62840;52.366;5.980;2023-05-20T10:54:42;102194.69;;;18.45;44.77
69574;BME280;62840;52.366;5.980;2023-05-20T10:57:08;102199.25;;;18.45;45.54
69574;BME280;62840;52.366;5.980;2023-05-20T10:59:38;102200.09;;;18.45;45.24
69574;BME280;62840;52.366;5.980;2023-05-20T11:02:05;102183.59;;;18.48;44.96
69574;BME280;62840;52.366;5.980;2023-05-20T11:04:32;102187.00;;;18.50;45.44
69574;BME280;62840;52.366;5.980;2023-05-20T11:06:58;102183.03;;;18.54;45.54
69574;BME280;62840;52.366;5.980;2023-05-20T11:09:24;102178.16;;;18.58;45.54
69574;BME280;62840;52.366;5.980;2023-05-20T11:11:50;102173.34;;;18.62;44.65
69574;BME280;62840;52.366;5.980;2023-05-20T11:14:17;102183.84;;;18.65;44.46
69574;BME280;62840;52.366;5.980;2023-05-20T11:16:50;102183.53;;;18.68;44.66
69574;BME280;62840;52.366;5.980;2023-05-20T11:19:16;102177.28;;;18.67;44.94
69574;BME280;62840;52.366;5.980;2023-05-20T11:21:42;102183.44;;;18.69;44.64
69574;BME280;62840;52.366;5.980;2023-05-20T11:24:09;102164.63;;;18.68;44.46
69574;BME280;62840;52.366;5.980;2023-05-20T11:26:35;102174.47;;;18.69;44.29
69574;BME280;62840;52.366;5.980;2023-05-20T11:29:02;102174.47;;;18.69;44.80
69574;BME280;62840;52.366;5.980;2023-05-20T11:31:28;102170.75;;;18.70;44.47
69574;BME280;62840;52.366;5.980;2023-05-20T11:33:56;102158.97;;;18.71;44.87
69574;BME280;62840;52.366;5.980;2023-05-20T11:36:23;102159.66;;;18.73;44.02
69574;BME280;62840;52.366;5.980;2023-05-20T11:38:50;102159.66;;;18.73;44.02
69574;BME280;62840;52.366;5.980;2023-05-20T11:41:22;102153.97;;;18.76;44.45
69574;BME280;62840;52.366;5.980;2023-05-20T11:43:55;102157.06;;;18.81;44.05
69574;BME280;62840;52.366;5.980;2023-05-20T11:46:21;102163.88;;;18.85;44.18
69574;BME280;62840;52.366;5.980;2023-05-20T11:48:51;102160.59;;;18.91;44.69
69574;BME280;62840;52.366;5.980;2023-05-20T11:51:22;102153.03;;;18.95;44.48
69574;BME280;62840;52.366;5.980;2023-05-20T11:53:48;102157.28;;;18.98;44.55
69574;BME280;62840;52.366;5.980;2023-05-20T11:56:14;102143.59;;;18.99;44.18
69574;BME280;62840;52.366;5.980;2023-05-20T11:58:42;102149.00;;;18.99;44.33
69574;BME280;62840;52.366;5.980;2023-05-20T12:01:08;102136.38;;;19.00;43.90
69574;BME280;62840;52.366;5.980;2023-05-20T12:03:34;102127.09;;;19.02;43.79
69574;BME280;62840;52.366;5.980;2023-05-20T12:06:00;102127.63;;;19.06;44.14
69574;BME280;62840;52.366;5.980;2023-05-20T12:08:29;102130.19;;;19.07;44.20
69574;BME280;62840;52.366;5.980;2023-05-20T12:10:55;102131.03;;;19.08;44.06
69574;BME280;62840;52.366;5.980;2023-05-20T12:13:21;102131.03;;;19.08;44.33
69574;BME280;62840;52.366;5.980;2023-05-20T12:15:46;102132.44;;;19.12;43.98
69574;BME280;62840;52.366;5.980;2023-05-20T12:18:12;102124.72;;;19.17;43.94
69574;BME280;62840;52.366;5.980;2023-05-20T12:20:38;102121.53;;;19.22;44.14
69574;BME280;62840;52.366;5.980;2023-05-20T12:23:04;102120.25;;;19.26;44.17
69574;BME280;62840;52.366;5.980;2023-05-20T12:25:32;102134.00;;;19.32;44.04
69574;BME280;62840;52.366;5.980;2023-05-20T12:28:00;102110.03;;;19.37;43.39
69574;BME280;62840;52.366;5.980;2023-05-20T12:30:26;102120.56;;;19.41;43.44
69574;BME280;62840;52.366;5.980;2023-05-20T12:32:52;102123.97;;;19.43;43.81
69574;BME280;62840;52.366;5.980;2023-05-20T12:35:24;102120.81;;;19.47;43.46
69574;BME280;62840;52.366;5.980;2023-05-20T12:38:00;102121.66;;;19.48;43.16
69574;BME280;62840;52.366;5.980;2023-05-20T12:40:25;102120.09;;;19.45;43.10
69574;BME280;62840;52.366;5.980;2023-05-20T12:42:54;102114.56;;;19.47;43.30
69574;BME280;62840;52.366;5.980;2023-05-20T12:45:20;102102.25;;;19.52;42.97
69574;BME280;62840;52.366;5.980;2023-05-20T12:47:45;102109.94;;;19.57;43.11
69574;BME280;62840;52.366;5.980;2023-05-20T12:50:11;102105.38;;;19.57;43.26
69574;BME280;62840;52.366;5.980;2023-05-20T12:52:37;102101.81;;;19.57;43.13